sim
Sign-in with your pilot id or email,
or register
Callsign
Passwort

Schedule Details

Flight Number: DLH726 (1)
Departure: Munich Airport (EDDM) at 21:25
Arrival: Shanghai Pudong International Airport (ZSPD) at 08:35
Route: Lufthansa Passenger Schedule. Enter filed route here before submitting Pirep.

Weather Information
Getting current METAR information for EDDM 190920Z 08007KT 040V110 CAVOK 16/09 Q1020 NOSIG
Getting current METAR information for ZSPD 190930Z VRB01MPS 7000 SCT026 22/20 Q1017 NOSIG

Schedule Frequency

Route Map